• Join FlightAware (Why Join?)
  • Login
  • US Flag 
12:07PM EDT


 

Airport Tracker/Info


-or-


 

Live Flight TrackerFlight Track Log ✈ JTA613 ✈ 26-Jun-2013 ✈ ROAH / OKA - ROIG / ISG

Flight Track Log - Related Links

Times and Time Zones

All times are in EDT time to prevent confusion due to time zone crossing. See the JTA613 flight status page for this flight to view local times or setup timezone preferences in your user account.

Time Position Orientation Groundspeed Altitude Reporting Facility
EDT Latitude Longitude Course Direction KTS MPH feet Rate Location/Type
01:43AM 26.0490 127.3619 240° Southwest  Level Estimated
01:44AM 25.9999 127.2674 240° Southwest  Level Estimated
01:45AM 25.9508 127.1730 240° Southwest  Level Estimated
01:46AM 25.9016 127.0786 240° Southwest  Level Estimated
01:47AM 25.8524 126.9843 240° Southwest  Level Estimated
01:48AM 25.8030 126.8901 240° Southwest  Level Estimated
01:49AM 25.7537 126.7960 240° Southwest  Level Estimated
01:50AM 25.7042 126.7020 240° Southwest  Level Estimated
01:51AM 25.6548 126.6080 240° Southwest  Level Estimated
01:52AM 25.6052 126.5142 240° Southwest  Level Estimated
01:53AM 25.5556 126.4204 240° Southwest  Level Estimated
01:54AM 25.5059 126.3267 240° Southwest  Level Estimated
01:55AM 25.4562 126.2330 240° Southwest  Level Estimated
01:56AM 25.4064 126.1394 240° Southwest  Level Estimated
01:57AM 25.3566 126.0460 239° Southwest  Level Estimated
01:58AM 25.3066 125.9525 239° Southwest  Level Estimated
01:59AM 25.2567 125.8592 239° Southwest  Level Estimated
02:00AM 25.2066 125.7660 239° Southwest  Level Estimated
02:01AM 25.1566 125.6728 239° Southwest  Level Estimated
02:02AM 25.1064 125.5797 239° Southwest  Level Estimated
02:03AM 25.0501 125.4754 239° Southwest  Level Estimated
02:04AM 24.9938 125.3712 239° Southwest  Level Estimated
02:05AM 24.9373 125.2671 239° Southwest  Level Estimated
02:06AM 24.8808 125.1630 239° Southwest  Level Estimated
02:07AM 24.8242 125.0591 239° Southwest  Level Estimated
02:08AM 24.7676 124.9553 239° Southwest  Level Estimated
02:09AM 24.7109 124.8516 239° Southwest  Level Estimated
02:10AM 24.6541 124.7479 239° Southwest  Level Estimated
02:11AM 24.5972 124.6444 239° Southwest  Level Estimated
02:12AM 24.5403 124.5410 239° Southwest  Level Estimated
02:13AM 24.4833 124.4376 239° Southwest  Level Estimated
02:14AM 24.4262 124.3344 239° Southwest  Level Estimated
02:15AM 24.3690 124.2312 239° Southwest  Level Estimated
02:16AM 24.3445 124.1870 239° Southwest  Level Estimated
02:17AM 24.3445 124.1870 29° Northeast  Level Estimated
02:18AM 24.3445 124.1870 29° Northeast  Level Estimated
02:19AM 24.3445 124.1870 29° Northeast  Level Estimated
02:20AM 24.3445 124.1870 29° Northeast  Level Estimated
02:21AM 24.3445 124.1870 29° Northeast  Level Estimated
02:22AM 24.3445 124.1870 29° Northeast  Level Estimated
02:23AM 24.3445 124.1870 29° Northeast  Level Estimated
02:24AM 24.3445 124.1870 29° Northeast  Level Estimated